createdAt,value
2023-05-09T00:00:50.348Z,15.10
2023-05-09T00:03:17.456Z,15.10
2023-05-09T00:05:44.458Z,15.10
2023-05-09T00:08:11.363Z,15.00
2023-05-09T00:10:38.306Z,15.00
2023-05-09T00:13:05.275Z,15.00
2023-05-09T00:15:32.291Z,15.00
2023-05-09T00:17:59.508Z,15.00
2023-05-09T00:20:26.583Z,14.90
2023-05-09T00:22:53.498Z,14.90
2023-05-09T00:25:20.653Z,14.90
2023-05-09T00:27:47.635Z,14.80
2023-05-09T00:30:14.719Z,14.80
2023-05-09T00:32:41.876Z,14.80
2023-05-09T00:35:10.263Z,14.70
2023-05-09T00:37:37.365Z,14.60
2023-05-09T00:40:06.600Z,14.60
2023-05-09T00:42:34.063Z,14.60
2023-05-09T00:45:01.449Z,14.60
2023-05-09T00:47:29.495Z,14.50
2023-05-09T00:49:58.423Z,14.50
2023-05-09T00:52:29.103Z,14.40
2023-05-09T00:54:56.485Z,14.40
2023-05-09T00:57:23.789Z,14.40
2023-05-09T00:59:50.960Z,14.30
2023-05-09T01:02:18.802Z,14.30
2023-05-09T01:04:46.757Z,14.20
2023-05-09T01:07:35.113Z,14.10
2023-05-09T01:10:47.140Z,14.10
2023-05-09T01:13:27.339Z,14.10
2023-05-09T01:16:06.421Z,14.00
2023-05-09T01:18:39.403Z,14.00
2023-05-09T01:21:11.322Z,14.00
2023-05-09T01:23:44.418Z,13.90
2023-05-09T01:26:29.925Z,13.90
2023-05-09T01:29:27.730Z,13.80
2023-05-09T01:31:56.792Z,13.70
2023-05-09T01:34:28.713Z,13.70
2023-05-09T01:36:59.774Z,13.70
2023-05-09T01:39:27.563Z,13.70
2023-05-09T01:41:57.805Z,13.60
2023-05-09T01:44:26.796Z,13.60
2023-05-09T01:46:58.887Z,13.50
2023-05-09T01:49:28.909Z,13.50
2023-05-09T01:51:57.388Z,13.50
2023-05-09T01:54:26.270Z,13.50
2023-05-09T01:56:55.851Z,13.50
2023-05-09T01:59:23.811Z,13.50
2023-05-09T02:01:52.576Z,13.40
2023-05-09T02:04:20.627Z,13.50
2023-05-09T02:06:51.293Z,13.40
2023-05-09T02:09:19.890Z,13.50
2023-05-09T02:11:47.816Z,13.50
2023-05-09T02:14:15.046Z,13.40
2023-05-09T02:16:42.524Z,13.40
2023-05-09T02:19:09.497Z,13.40
2023-05-09T02:21:36.690Z,13.40
2023-05-09T02:24:04.318Z,13.30
2023-05-09T02:26:31.530Z,13.30
2023-05-09T02:28:59.184Z,13.30
2023-05-09T02:31:28.535Z,13.20
2023-05-09T02:33:56.488Z,13.20
2023-05-09T02:36:23.897Z,13.20
2023-05-09T02:38:51.567Z,13.10
2023-05-09T02:41:18.546Z,13.10
2023-05-09T02:43:46.067Z,13.10
2023-05-09T02:46:13.144Z,13.10
2023-05-09T02:48:40.094Z,13.10
2023-05-09T02:51:07.052Z,13.00
2023-05-09T02:53:34.039Z,13.00
2023-05-09T02:56:01.083Z,12.90
2023-05-09T02:58:27.976Z,12.90
2023-05-09T03:00:54.993Z,12.90
2023-05-09T03:03:23.429Z,12.90
2023-05-09T03:05:51.225Z,12.90
2023-05-09T03:08:18.212Z,12.90
2023-05-09T03:10:45.234Z,12.90
2023-05-09T03:13:12.509Z,12.90
2023-05-09T03:15:39.464Z,12.80
2023-05-09T03:18:07.966Z,12.70
2023-05-09T03:20:34.938Z,12.70
2023-05-09T03:23:02.294Z,12.70
2023-05-09T03:25:29.833Z,12.60
2023-05-09T03:27:56.909Z,12.70
2023-05-09T03:30:24.279Z,12.60
2023-05-09T03:32:51.744Z,12.60
2023-05-09T03:35:18.812Z,12.70
2023-05-09T03:37:45.978Z,12.70
2023-05-09T03:40:13.164Z,12.70
2023-05-09T03:42:46.913Z,12.80
2023-05-09T03:45:14.071Z,12.80
2023-05-09T03:47:41.687Z,12.80
2023-05-09T03:50:09.302Z,12.80
2023-05-09T03:52:37.380Z,12.80
2023-05-09T03:55:05.917Z,12.80
2023-05-09T03:57:35.872Z,12.80
2023-05-09T04:00:05.914Z,12.80
2023-05-09T04:02:41.329Z,12.90
2023-05-09T04:05:12.671Z,12.90
2023-05-09T04:07:40.162Z,12.90
2023-05-09T04:10:09.058Z,13.10
2023-05-09T04:12:36.291Z,13.10
2023-05-09T04:15:03.733Z,13.10
2023-05-09T04:17:31.283Z,13.20
2023-05-09T04:19:58.259Z,13.20
2023-05-09T04:22:25.271Z,13.40
2023-05-09T04:24:52.320Z,13.50
2023-05-09T04:27:19.530Z,13.70
2023-05-09T04:29:46.829Z,14.00
2023-05-09T04:32:15.723Z,14.40
2023-05-09T04:34:43.061Z,14.80
2023-05-09T04:37:16.322Z,15.10
2023-05-09T04:39:43.590Z,15.00
2023-05-09T04:42:19.905Z,15.00
2023-05-09T04:44:47.689Z,14.90
2023-05-09T04:47:17.483Z,14.80
2023-05-09T04:49:44.681Z,14.80
2023-05-09T04:52:11.646Z,14.70
2023-05-09T04:54:38.767Z,14.70
2023-05-09T04:57:17.166Z,14.80
2023-05-09T04:59:47.795Z,15.20
2023-05-09T05:02:16.041Z,15.80
2023-05-09T05:04:43.372Z,16.10
2023-05-09T05:07:10.542Z,16.10
2023-05-09T05:09:38.370Z,16.10
2023-05-09T05:12:09.342Z,15.80
2023-05-09T05:14:37.466Z,15.80
2023-05-09T05:17:06.537Z,15.70
2023-05-09T05:19:34.122Z,15.80
2023-05-09T05:22:02.430Z,16.10
2023-05-09T05:24:31.598Z,16.40
2023-05-09T05:26:58.688Z,16.60
2023-05-09T05:29:26.063Z,16.80
2023-05-09T05:31:53.163Z,16.90
2023-05-09T05:34:21.225Z,17.10
2023-05-09T05:36:48.395Z,17.20
2023-05-09T05:39:15.504Z,17.20
2023-05-09T05:41:42.600Z,17.40
2023-05-09T05:44:10.589Z,17.50
2023-05-09T05:46:38.507Z,17.80
2023-05-09T05:49:05.983Z,18.10
2023-05-09T05:51:34.351Z,19.00
2023-05-09T05:54:02.908Z,20.60
2023-05-09T05:56:30.536Z,21.10
2023-05-09T05:58:57.500Z,20.80
2023-05-09T06:01:24.715Z,20.10
2023-05-09T06:03:54.868Z,20.10
2023-05-09T06:06:26.220Z,19.10
2023-05-09T06:08:55.425Z,18.20
2023-05-09T06:11:23.296Z,17.70
2023-05-09T06:13:50.382Z,17.60
2023-05-09T06:16:19.869Z,17.40
2023-05-09T06:18:51.505Z,17.40
2023-05-09T06:21:21.052Z,17.40
2023-05-09T06:24:04.971Z,17.70
2023-05-09T06:26:33.449Z,17.30
2023-05-09T06:29:00.528Z,17.50
2023-05-09T06:31:27.461Z,17.50
2023-05-09T06:33:54.486Z,17.50
2023-05-09T06:36:21.623Z,17.50
2023-05-09T06:38:48.577Z,17.50
2023-05-09T06:41:15.594Z,17.70
2023-05-09T06:43:42.512Z,18.00
2023-05-09T06:46:09.506Z,18.00
2023-05-09T06:48:36.517Z,18.30
2023-05-09T06:51:03.444Z,18.70
2023-05-09T06:53:30.352Z,18.80
2023-05-09T06:55:57.473Z,18.60
2023-05-09T06:58:24.410Z,18.20
2023-05-09T07:00:51.670Z,18.00
2023-05-09T07:03:18.747Z,18.00
2023-05-09T07:05:46.194Z,18.20
2023-05-09T07:08:13.174Z,18.20
2023-05-09T07:10:40.525Z,18.20
2023-05-09T07:13:07.593Z,18.10
2023-05-09T07:15:41.864Z,18.10
2023-05-09T07:18:10.078Z,18.70
2023-05-09T07:20:37.260Z,18.90
2023-05-09T07:23:04.699Z,19.00
2023-05-09T07:25:31.802Z,18.80
2023-05-09T07:27:59.021Z,18.30
2023-05-09T07:30:26.080Z,18.10
2023-05-09T07:32:53.487Z,17.90
2023-05-09T07:35:21.124Z,18.00
2023-05-09T07:37:48.185Z,18.10
2023-05-09T07:40:15.785Z,18.30
2023-05-09T07:42:49.677Z,18.30
2023-05-09T07:45:17.177Z,18.30
2023-05-09T07:47:45.010Z,18.30
2023-05-09T07:50:11.958Z,18.30
2023-05-09T07:52:38.953Z,18.10
2023-05-09T07:55:06.718Z,18.00
2023-05-09T07:57:33.612Z,18.00
2023-05-09T08:00:00.467Z,18.30
2023-05-09T08:02:27.462Z,18.60
2023-05-09T08:04:54.529Z,18.70
2023-05-09T08:07:21.470Z,18.80
2023-05-09T08:09:48.515Z,19.30
2023-05-09T08:12:15.697Z,19.10
2023-05-09T08:14:42.698Z,18.70
2023-05-09T08:17:09.896Z,18.80
2023-05-09T08:19:36.825Z,18.70
2023-05-09T08:22:03.779Z,18.80
2023-05-09T08:24:31.971Z,18.80
2023-05-09T08:26:58.896Z,19.00
2023-05-09T08:29:25.940Z,19.50
2023-05-09T08:31:53.062Z,19.30
2023-05-09T08:34:21.089Z,19.20
2023-05-09T08:36:48.354Z,19.00
2023-05-09T08:39:15.317Z,19.20
2023-05-09T08:41:43.022Z,19.40
2023-05-09T08:44:10.442Z,19.30
2023-05-09T08:46:39.772Z,19.50
2023-05-09T08:49:08.349Z,19.60
2023-05-09T08:51:36.777Z,19.80
2023-05-09T08:54:05.361Z,19.60
2023-05-09T08:56:32.512Z,19.60
2023-05-09T08:58:59.522Z,19.60
2023-05-09T09:01:27.848Z,19.20
2023-05-09T09:03:55.203Z,19.20
2023-05-09T09:06:25.787Z,19.50
2023-05-09T09:08:56.262Z,19.60
2023-05-09T09:11:23.706Z,20.10
2023-05-09T09:13:53.990Z,19.90
2023-05-09T09:16:22.917Z,20.00
2023-05-09T09:18:52.386Z,19.90
2023-05-09T09:21:20.801Z,19.30
2023-05-09T09:23:49.083Z,19.70
2023-05-09T09:26:16.534Z,19.90
2023-05-09T09:28:43.718Z,20.00
2023-05-09T09:34:22.986Z,19.90
2023-05-09T09:36:50.656Z,20.10
2023-05-09T09:39:17.889Z,19.90
2023-05-09T09:41:45.096Z,19.70
2023-05-09T09:44:17.422Z,19.90
2023-05-09T09:46:52.417Z,19.90
2023-05-09T09:49:21.535Z,19.70
2023-05-09T09:51:53.754Z,19.60
2023-05-09T09:54:21.289Z,19.60
2023-05-09T09:56:54.967Z,19.60
2023-05-09T09:59:28.377Z,19.40
2023-05-09T10:02:07.388Z,19.60
2023-05-09T10:04:37.265Z,19.70
2023-05-09T10:07:06.264Z,19.80
2023-05-09T10:09:35.879Z,19.80
2023-05-09T10:12:04.572Z,19.60
2023-05-09T10:14:35.098Z,19.90
2023-05-09T10:17:04.203Z,20.20
2023-05-09T10:19:32.338Z,20.50
2023-05-09T10:22:05.039Z,20.30
2023-05-09T10:25:08.378Z,20.00
2023-05-09T10:27:36.545Z,20.00
2023-05-09T10:30:12.573Z,19.80
2023-05-09T10:32:51.566Z,19.70
2023-05-09T10:35:21.788Z,19.50
2023-05-09T10:37:49.489Z,19.40
2023-05-09T10:40:17.746Z,19.50
2023-05-09T10:42:45.251Z,19.40
2023-05-09T10:45:13.405Z,19.60
2023-05-09T10:47:45.216Z,20.00
2023-05-09T10:50:13.388Z,20.10
2023-05-09T10:53:16.986Z,20.30
2023-05-09T10:55:47.354Z,20.60
2023-05-09T10:58:23.006Z,20.60
2023-05-09T11:00:51.791Z,20.40
2023-05-09T11:03:19.998Z,20.20
2023-05-09T11:05:48.926Z,20.20
2023-05-09T11:08:20.594Z,20.30
2023-05-09T11:10:48.143Z,20.60
2023-05-09T11:13:23.949Z,20.70
2023-05-09T11:16:02.658Z,20.90
2023-05-09T11:18:30.071Z,20.60
2023-05-09T11:20:57.304Z,20.70
2023-05-09T11:23:29.872Z,20.90
2023-05-09T11:26:06.571Z,21.20
2023-05-09T11:28:38.830Z,21.00
2023-05-09T11:31:19.212Z,21.20
2023-05-09T11:33:55.037Z,21.30
2023-05-09T11:36:32.102Z,21.50
2023-05-09T11:39:08.966Z,21.40
2023-05-09T11:41:41.100Z,21.70
2023-05-09T11:44:19.745Z,21.90
2023-05-09T11:46:48.186Z,21.90
2023-05-09T11:49:15.935Z,21.40
2023-05-09T11:51:42.967Z,21.30
2023-05-09T11:54:12.233Z,21.20
2023-05-09T11:56:42.018Z,20.30
2023-05-09T11:59:10.622Z,19.80
2023-05-09T12:01:37.737Z,19.70
2023-05-09T12:04:07.909Z,19.80
2023-05-09T12:06:34.914Z,20.00
2023-05-09T12:09:01.937Z,20.30
2023-05-09T12:11:32.482Z,20.50
2023-05-09T12:13:59.619Z,20.20
2023-05-09T12:16:26.627Z,20.00
2023-05-09T12:18:54.149Z,20.30
2023-05-09T12:21:21.865Z,20.30
2023-05-09T12:23:51.671Z,20.30
2023-05-09T12:26:22.816Z,20.40
2023-05-09T12:28:50.733Z,20.70
2023-05-09T12:31:17.930Z,21.20
2023-05-09T12:33:45.017Z,21.20
2023-05-09T12:36:13.750Z,21.00
2023-05-09T12:38:41.023Z,20.70
2023-05-09T12:41:18.846Z,20.50
2023-05-09T12:43:57.017Z,20.40
2023-05-09T12:46:24.333Z,20.30
2023-05-09T12:48:51.761Z,20.30
2023-05-09T12:51:20.835Z,19.90
2023-05-09T12:53:48.686Z,19.90
2023-05-09T12:56:20.805Z,18.40
2023-05-09T12:58:52.624Z,17.70
2023-05-09T13:01:21.337Z,16.90
2023-05-09T13:03:53.121Z,17.20
2023-05-09T13:06:21.178Z,17.30
2023-05-09T13:09:01.541Z,17.50
2023-05-09T13:11:29.195Z,17.40
2023-05-09T13:13:56.168Z,17.50
2023-05-09T13:16:23.358Z,17.40
2023-05-09T13:18:50.441Z,17.50
2023-05-09T13:21:17.396Z,17.70
2023-05-09T13:23:45.440Z,17.80
2023-05-09T13:26:12.592Z,18.00
2023-05-09T13:28:39.548Z,18.10
2023-05-09T13:31:06.917Z,18.50
2023-05-09T13:33:36.212Z,18.80
2023-05-09T13:36:03.798Z,19.00
2023-05-09T13:38:32.302Z,19.10
2023-05-09T13:41:00.139Z,19.30
2023-05-09T13:43:27.380Z,19.40
2023-05-09T13:45:54.314Z,19.50
2023-05-09T13:48:21.266Z,19.70
2023-05-09T13:50:48.144Z,20.00
2023-05-09T13:53:15.088Z,19.90
2023-05-09T13:55:42.802Z,19.90
2023-05-09T13:58:09.752Z,19.60
2023-05-09T14:00:36.881Z,19.60
2023-05-09T14:03:04.050Z,19.60
2023-05-09T14:05:34.164Z,19.60
2023-05-09T14:08:01.805Z,19.60
2023-05-09T14:10:29.048Z,19.70
2023-05-09T14:12:57.005Z,19.90
2023-05-09T14:15:24.152Z,20.10
2023-05-09T14:17:51.143Z,20.20
2023-05-09T14:20:18.180Z,20.30
2023-05-09T14:22:45.366Z,20.30
2023-05-09T14:25:12.528Z,20.20
2023-05-09T14:27:39.550Z,20.30
2023-05-09T14:30:07.210Z,20.50
2023-05-09T14:32:34.221Z,20.70
2023-05-09T14:35:01.227Z,20.70
2023-05-09T14:37:29.428Z,20.70
2023-05-09T14:39:56.531Z,20.90
2023-05-09T14:42:23.782Z,20.70
2023-05-09T14:44:50.769Z,20.60
2023-05-09T14:47:17.674Z,20.40
2023-05-09T14:49:44.638Z,20.10
2023-05-09T14:52:11.798Z,20.00
2023-05-09T14:54:38.650Z,19.80
2023-05-09T14:57:07.552Z,19.60
2023-05-09T14:59:36.864Z,19.50
2023-05-09T15:02:07.164Z,19.40
2023-05-09T15:04:34.158Z,19.30
2023-05-09T15:07:01.153Z,19.10
2023-05-09T15:09:28.075Z,18.70
2023-05-09T15:11:55.319Z,17.70
2023-05-09T15:14:22.368Z,16.60
2023-05-09T15:16:51.653Z,16.40
2023-05-09T15:19:18.973Z,16.40
2023-05-09T15:21:46.243Z,16.30
2023-05-09T15:24:13.173Z,16.30
2023-05-09T15:26:40.149Z,16.40
2023-05-09T15:29:07.177Z,16.40
2023-05-09T15:31:38.563Z,16.40
2023-05-09T15:34:05.476Z,16.30
2023-05-09T15:36:34.045Z,16.20
2023-05-09T15:39:01.282Z,15.80
2023-05-09T15:41:28.691Z,15.70
2023-05-09T15:43:55.641Z,15.70
2023-05-09T15:46:22.763Z,15.80
2023-05-09T15:48:50.393Z,15.80
2023-05-09T15:51:17.352Z,15.90
2023-05-09T15:53:44.302Z,15.50
2023-05-09T15:56:11.306Z,15.50
2023-05-09T15:58:39.030Z,15.40
2023-05-09T16:01:07.880Z,15.30
2023-05-09T16:03:35.137Z,15.20
2023-05-09T16:06:02.356Z,14.90
2023-05-09T16:08:30.442Z,14.80
2023-05-09T16:11:00.774Z,14.70
2023-05-09T16:13:28.120Z,14.70
2023-05-09T16:15:55.688Z,14.80
2023-05-09T16:18:22.729Z,15.00
2023-05-09T16:20:49.710Z,15.10
2023-05-09T16:23:16.820Z,15.10
2023-05-09T16:25:44.993Z,15.00
2023-05-09T16:28:12.101Z,15.40
2023-05-09T16:30:39.004Z,15.70
2023-05-09T16:33:05.936Z,15.90
2023-05-09T16:35:32.975Z,15.90
2023-05-09T16:37:59.864Z,15.80
2023-05-09T16:40:26.838Z,15.70
2023-05-09T16:42:53.860Z,15.80
2023-05-09T16:45:20.996Z,15.60
2023-05-09T16:47:48.002Z,15.70
2023-05-09T16:50:18.105Z,15.60
2023-05-09T16:52:45.203Z,15.60
2023-05-09T16:55:12.399Z,15.90
2023-05-09T16:57:39.420Z,16.00
2023-05-09T17:00:07.916Z,16.10
2023-05-09T17:02:36.363Z,16.30
2023-05-09T17:05:04.309Z,16.50
2023-05-09T17:07:32.248Z,16.40
2023-05-09T17:09:59.497Z,16.30
2023-05-09T17:12:27.510Z,16.30
2023-05-09T17:14:54.491Z,16.40
2023-05-09T17:17:21.392Z,16.50
2023-05-09T17:19:48.545Z,16.80
2023-05-09T17:22:15.699Z,17.00
2023-05-09T17:24:42.705Z,17.10
2023-05-09T17:27:11.528Z,17.10
2023-05-09T17:29:38.532Z,17.10
2023-05-09T17:32:05.583Z,17.10
2023-05-09T17:34:32.884Z,17.00
2023-05-09T17:37:02.046Z,16.90
2023-05-09T17:39:29.396Z,17.10
2023-05-09T17:41:56.407Z,17.20
2023-05-09T17:44:23.965Z,17.20
2023-05-09T17:46:51.882Z,16.90
2023-05-09T17:49:18.920Z,16.60
2023-05-09T17:51:46.045Z,16.50
2023-05-09T17:54:13.080Z,16.60
2023-05-09T17:56:41.462Z,16.90
2023-05-09T17:59:08.423Z,17.00
2023-05-09T18:01:35.645Z,17.00
2023-05-09T18:04:02.879Z,17.00
2023-05-09T18:06:29.862Z,17.00
2023-05-09T18:08:56.794Z,16.90
2023-05-09T18:11:24.570Z,16.90
2023-05-09T18:13:51.618Z,17.00
2023-05-09T18:16:18.633Z,17.00
2023-05-09T18:18:45.596Z,17.10
2023-05-09T18:21:12.557Z,17.10
2023-05-09T18:23:40.089Z,16.90
2023-05-09T18:26:07.776Z,16.80
2023-05-09T18:28:39.551Z,17.00
2023-05-09T18:31:09.512Z,17.10
2023-05-09T18:33:39.686Z,17.00
2023-05-09T18:36:09.475Z,16.90
2023-05-09T18:38:41.122Z,16.90
2023-05-09T18:41:09.632Z,16.90
2023-05-09T18:43:39.027Z,16.90
2023-05-09T18:46:06.043Z,16.90
2023-05-09T18:48:33.541Z,16.90
2023-05-09T18:51:00.580Z,16.90
2023-05-09T18:53:28.843Z,16.80
2023-05-09T18:55:56.805Z,16.60
2023-05-09T18:58:24.682Z,16.20
2023-05-09T19:00:52.992Z,16.40
2023-05-09T19:03:20.911Z,16.30
2023-05-09T19:05:47.916Z,16.50
2023-05-09T19:08:15.157Z,16.50
2023-05-09T19:10:42.589Z,16.50
2023-05-09T19:13:09.800Z,16.60
2023-05-09T19:15:39.934Z,16.50
2023-05-09T19:18:07.033Z,16.60
2023-05-09T19:20:34.126Z,16.30
2023-05-09T19:23:01.632Z,16.20
2023-05-09T19:25:30.488Z,16.10
2023-05-09T19:27:57.512Z,16.10
2023-05-09T19:30:24.471Z,16.00
2023-05-09T19:32:52.936Z,16.00
2023-05-09T19:35:20.562Z,16.00
2023-05-09T19:37:47.563Z,16.00
2023-05-09T19:40:14.726Z,15.90
2023-05-09T19:42:42.014Z,15.90
2023-05-09T19:45:09.598Z,15.80
2023-05-09T19:47:36.694Z,15.90
2023-05-09T19:50:04.135Z,15.80
2023-05-09T19:52:31.846Z,15.90
2023-05-09T19:54:58.920Z,16.00
2023-05-09T19:57:25.880Z,16.10
2023-05-09T19:59:54.583Z,16.00
2023-05-09T20:02:21.611Z,16.10
2023-05-09T20:04:50.051Z,16.10
2023-05-09T20:07:17.750Z,16.20
2023-05-09T20:09:44.828Z,16.30
2023-05-09T20:12:13.273Z,16.30
2023-05-09T20:14:40.344Z,16.20
2023-05-09T20:17:07.574Z,16.20
2023-05-09T20:19:34.728Z,16.10
2023-05-09T20:22:02.362Z,16.10
2023-05-09T20:24:31.335Z,16.10
2023-05-09T20:26:58.394Z,16.00
2023-05-09T20:29:26.081Z,16.10
2023-05-09T20:31:53.212Z,16.00
2023-05-09T20:34:22.202Z,16.00
2023-05-09T20:36:53.269Z,15.90
2023-05-09T20:39:21.232Z,15.90
2023-05-09T20:41:49.421Z,15.80
2023-05-09T20:44:17.787Z,15.80
2023-05-09T20:46:45.452Z,15.80
2023-05-09T20:49:12.738Z,15.80
2023-05-09T20:51:39.766Z,15.80
2023-05-09T20:54:07.050Z,15.90
2023-05-09T20:56:35.571Z,15.90
2023-05-09T20:59:04.161Z,16.00
2023-05-09T21:01:32.457Z,16.00
2023-05-09T21:03:59.783Z,16.00
2023-05-09T21:06:26.932Z,16.00
2023-05-09T21:08:53.831Z,15.90
2023-05-09T21:11:21.999Z,15.90
2023-05-09T21:13:49.119Z,15.90
2023-05-09T21:16:16.188Z,15.90
2023-05-09T21:18:43.227Z,15.90
2023-05-09T21:21:10.289Z,15.90
2023-05-09T21:23:40.047Z,15.80
2023-05-09T21:26:06.982Z,15.90
2023-05-09T21:28:33.919Z,15.90
2023-05-09T21:31:01.660Z,15.90
2023-05-09T21:33:29.249Z,15.80
2023-05-09T21:35:56.391Z,15.80
2023-05-09T21:38:23.343Z,15.80
2023-05-09T21:40:51.540Z,15.90
2023-05-09T21:43:19.630Z,15.80
2023-05-09T21:45:46.714Z,15.80
2023-05-09T21:48:13.785Z,15.80
2023-05-09T21:50:40.911Z,15.70
2023-05-09T21:53:07.878Z,15.70
2023-05-09T21:55:34.920Z,15.70
2023-05-09T21:58:01.815Z,15.80
2023-05-09T22:00:28.704Z,15.70
2023-05-09T22:02:55.720Z,15.70
2023-05-09T22:05:23.815Z,15.70
2023-05-09T22:07:51.565Z,15.70
2023-05-09T22:10:18.781Z,15.70
2023-05-09T22:12:46.091Z,15.80
2023-05-09T22:15:13.336Z,16.70
2023-05-09T22:17:40.449Z,16.60
2023-05-09T22:20:07.949Z,16.60
2023-05-09T22:22:35.065Z,16.60
2023-05-09T22:25:03.961Z,17.10
2023-05-09T22:27:31.047Z,17.30
2023-05-09T22:29:58.038Z,17.40
2023-05-09T22:32:24.952Z,17.50
2023-05-09T22:34:51.949Z,17.50
2023-05-09T22:37:19.204Z,17.40
2023-05-09T22:39:46.227Z,17.30
2023-05-09T22:42:13.214Z,17.30
2023-05-09T22:44:40.220Z,17.20
2023-05-09T22:47:08.195Z,17.20
2023-05-09T22:49:35.573Z,17.10
2023-05-09T22:52:02.674Z,17.10
2023-05-09T22:54:29.598Z,17.10
2023-05-09T22:56:56.653Z,17.20
2023-05-09T22:59:23.785Z,17.10
2023-05-09T23:01:51.022Z,17.10
2023-05-09T23:04:17.899Z,17.10
2023-05-09T23:06:45.036Z,17.10
2023-05-09T23:09:11.900Z,17.10
2023-05-09T23:11:38.810Z,17.00
2023-05-09T23:14:06.619Z,17.10
2023-05-09T23:16:33.577Z,17.00
2023-05-09T23:19:00.737Z,16.90
2023-05-09T23:21:27.916Z,17.20
2023-05-09T23:23:54.998Z,17.10
2023-05-09T23:26:21.955Z,17.10
2023-05-09T23:28:48.993Z,17.20
2023-05-09T23:31:16.103Z,17.20
2023-05-09T23:33:43.925Z,17.30
2023-05-09T23:36:10.839Z,17.20
2023-05-09T23:38:37.904Z,17.20
2023-05-09T23:41:05.025Z,17.30
2023-05-09T23:43:32.712Z,17.40
2023-05-09T23:45:59.711Z,17.40
2023-05-09T23:48:26.901Z,17.30
2023-05-09T23:50:53.758Z,17.20
2023-05-09T23:53:20.665Z,17.20
2023-05-09T23:55:47.551Z,17.30
2023-05-09T23:58:14.544Z,17.20
